HIO - Portland Hillsboro

Pirep is a free, collaborative database of all public and private airports located within the United States. All pilots are welcome to contribute, edit, and improve any airport they have local knowledge about, no registration required.
Uploaded photos will be licensed under a CC BY-SA 4.0 license. Please only upload photos you have the rights to use.
Tags
Car Rental
Public
Webcam
METAR / TAF
Flying Clubs
Edit Tags
Food
Camping
Lodging
Bicycles
Swimming
Golfing
Fishing
Hot Springs
Museum
Airpark
Upcoming Events
No upcoming events. Is anything happening here soon?
*
*
*

Where exactly on/near the airport is this event taking place?

Is there a webpage with more information for this event?

Who should be contacted for more information?

What is this event all about?

Repeat every
Description
Transient Parking
Last updated: 2024-01-02 10:27:37 PST
Fuel Location
Last updated: 2024-01-02 10:27:37 PST
Landing & Tie-down Fees
Crew Car Availability
Last updated: 2024-01-14 19:05:45 PST
Flying Clubs
Last updated: 2024-02-01 18:46:56 PST
WiFi Access
Airport Statistics
Location: Portland, OR
Elevation: 207ft
Sectional: Seattle
Activation date: Dec 1938
Fuel: 100LL, A (prices)
Runway 13R/31L: 6,600ft
Runway 02/20: 3,820ft
Runway 13L/31R: 3,600ft
Access: Open to the public
Current Weather — VFR
  • Weather data is strictly informational and not for flight planning purposes.
  • METAR
    2024-07-21 21:53:00 PDT
    Ceiling Wind Temperature Dewpoint Weather Visbility
    Sky clear 310° @ 11kt 64°F 53°F N/A 10SM
    Raw: KHIO 220453Z 31011KT 10SM CLR 18/12 A3009 RMK AO2 SLP187 T01780117
  • TAF
    2024-07-21 17:00:00 PDT – 2024-07-22 02:00:00 PDT
    Ceiling Wind Weather Visbility
    Sky clear 320° @ 12kt, gusts 23kt N/A 6SM
    Clouds: Scattered @ 4,500ft
    Raw: KHIO 212320Z 2200/2224 32012G23KT P6SM SCT045 FM220900 31006KT P6SM SCT250 FM222100 33010G20KT P6SM SKC
  • TAF
    2024-07-22 02:00:00 PDT – 2024-07-22 14:00:00 PDT
    Ceiling Wind Weather Visbility
    Sky clear 310° @ 6kt N/A 6SM
    Clouds: Scattered @ 25,000ft
    Raw: KHIO 212320Z 2200/2224 32012G23KT P6SM SCT045 FM220900 31006KT P6SM SCT250 FM222100 33010G20KT P6SM SKC
  • TAF
    2024-07-22 14:00:00 PDT – 2024-07-22 17:00:00 PDT
    Ceiling Wind Weather Visbility
    Sky clear 330° @ 10kt, gusts 20kt N/A 6SM
    Clouds: @ ft
    Raw: KHIO 212320Z 2200/2224 32012G23KT P6SM SCT045 FM220900 31006KT P6SM SCT250 FM222100 33010G20KT P6SM SKC
Click/tap to add an annotation marker to the map
Airport Webcams
Direct links to live image URLs will be displayed inline on this page. URLs to separate webpages will be linked to.
URL:
Remarks
  • Be alert for bird activity in vicinity nov-may.
  • Cstms avbl 2000-0400z++ 503-693-1069, otherwise cstms flt notification svc (adcus) avbl; advance coordination req 503-326-3230.
  • Noise abatement procedures in effect call 503-460-4100 or 800-938-6647.
  • Ry 13r run-up area not visible from atct.
  • Ry 31l is preferred ry for noise abatement.
Comments
Leave a comment What was your experience like at this airport?